Flight Track Log - Related Links

Times and Time Zones

All times are in EDT time to prevent confusion due to time zone crossing. See the N328AJ flight status page for this flight to view local times or setup timezone preferences in your user account.

Time Position Orientation Groundspeed Altitude Reporting Facility
EDT Latitude Longitude Course Direction KTS MPH feet Rate Location/Type
Mon 07:29:16 AM 39.9986 -82.9039 North 150 173 1,500  Level Indianapolis Center
Mon 07:29:59 AM 40.0322 -82.9011 North 179 206 2,900 1,967 Climbing Indianapolis Center
Mon 07:30:17 AM 40.0461 -82.8986 North 182 209 3,500 1,575 Climbing Indianapolis Center
Mon 07:31:19 AM 40.1006 -82.9006 358° North 189 217 5,000 1,415 Climbing Indianapolis Center
Mon 07:32:20 AM 40.1542 -82.8611 29° Northeast 237 273 6,400 1,574 Climbing Indianapolis Center
Mon 07:33:21 AM 40.1575 -82.7742 87° East 242 278 8,200 1,672 Climbing Indianapolis Center
Mon 07:34:22 AM 40.1636 -82.6839 85° East 248 285 9,800 878 Climbing Indianapolis Center
Mon 07:35:24 AM 40.1717 -82.5536 85° East 299 344 10,000 49 Climbing Indianapolis Center
Mon 07:36:25 AM 40.1778 -82.4367 86° East 318 366 9,900 443 Descending Indianapolis Center
Mon 07:37:26 AM 40.1825 -82.3214 87° East 319 367 10,900 1,024 Climbing Indianapolis Center
Mon 07:38:28 AM 40.1906 -82.2136 84° East 303 349 12,000 1,073 Climbing Indianapolis Center
Mon 07:39:29 AM 40.1856 -82.1158 94° East 274 315 13,100 1,082 Climbing Indianapolis Center
Mon 07:40:30 AM 40.1606 -82.0325 111° Southeast 249 287 14,200 1,073 Climbing Indianapolis Center
Mon 07:41:32 AM 40.1372 -81.9478 110° East 249 287 15,300 1,073 Climbing Indianapolis Center
Mon 07:42:33 AM 40.1133 -81.8617 110° East 252 290 16,400 1,122 Climbing Indianapolis Center
Mon 07:43:35 AM 40.0869 -81.7664 110° East 253 291 17,600 1,171 Climbing Indianapolis Center
Mon 07:44:36 AM 40.0650 -81.6800 108° East 250 288 18,800 1,171 Climbing Indianapolis Center
Mon 07:45:38 AM 40.0411 -81.5925 110° East 253 291 20,000 976 Climbing Indianapolis Center
Mon 07:46:39 AM 40.0175 -81.5069 110° East 251 289 20,800 488 Climbing Indianapolis Center
Mon 07:47:41 AM 39.9931 -81.4186 110° East 255 293 21,000 98 Climbing Indianapolis Center
Mon 07:48:42 AM 39.9656 -81.3192 110° East 283 326 21,000  Level Indianapolis Center
Mon 07:49:44 AM 39.9339 -81.2033 110° East 299 344 21,000  Level Indianapolis Center
Mon 07:50:45 AM 39.9056 -81.0986 109° East 304 350 21,000  Level Indianapolis Center
Mon 07:51:47 AM 39.8761 -80.9953 110° East 305 351 21,000  Level Indianapolis Center
Mon 07:52:48 AM 39.8475 -80.8892 109° East 310 357 21,000  Level Indianapolis Center
Mon 07:53:50 AM 39.8186 -80.7850 110° East 308 354 21,000  Level Indianapolis Center
Mon 07:54:52 AM 39.7900 -80.6825 110° East 301 346 21,000  Level Indianapolis Center
Mon 07:55:53 AM 39.7622 -80.5825 110° East 296 341 21,000  Level Indianapolis Center
Mon 07:56:55 AM 39.7264 -80.4606 111° Southeast 300 345 21,000  Level Indianapolis Center
Mon 07:57:57 AM 39.6978 -80.3594 110° East 299 344 21,000  Level Indianapolis Center
Mon 07:58:58 AM 39.6708 -80.2592 109° East 295 339 21,000  Level Indianapolis Center
Mon 08:00:00 AM 39.6444 -80.1642 110° East 283 326 21,000  Level Indianapolis Center
Mon 08:01:02 AM 39.6178 -80.0725 111° Southeast 273 314 21,000  Level Indianapolis Center
Mon 08:02:03 AM 39.5908 -79.9783 110° East 277 319 21,000  Level Indianapolis Center
Mon 08:03:12 AM 39.5667 -79.8800 108° East 272 313 21,000  Level Washington Center
Mon 08:04:10 AM 39.5553 -79.7825 99° East 272 313 21,000  Level Washington Center
Mon 08:05:12 AM 39.5464 -79.6797 96° East 278 320 21,000  Level Washington Center
Mon 08:06:10 AM 39.5394 -79.5797 95° East 278 320 21,000  Level Washington Center
Mon 08:07:10 AM 39.5322 -79.4769 95° East 278 320 21,000  Level Washington Center
Mon 08:08:11 AM 39.5231 -79.3742 97° East 278 320 21,000  Level Washington Center
Mon 08:09:11 AM 39.5119 -79.2606 97° East 278 320 21,000  Level Washington Center
Mon 08:10:12 AM 39.5003 -79.1633 99° East 283 326 21,000 -254 Level Washington Center
Mon 08:11:09 AM 39.4908 -79.0578 97° East 288 331 20,500 -763 Descending Washington Center
Mon 08:12:10 AM 39.4836 -78.9472 95° East 299 344 19,500 -1,033 Descending Washington Center
Mon 08:13:11 AM 39.4722 -78.8339 97° East 305 351 18,400 -1,415 Descending Washington Center
Mon 08:14:13 AM 39.4647 -78.7206 95° East 310 357 16,600 -1,815 Descending Washington Center
Mon 08:15:10 AM 39.4528 -78.6181 99° East 310 357 14,800 -1,831 Descending Washington Center
Mon 08:16:11 AM 39.4450 -78.5075 95° East 310 357 13,000 -1,736 Descending Washington Center
Mon 08:17:11 AM 39.4642 -78.4061 76° East 305 351 11,300 -1,700 Descending Washington Center
Mon 08:18:11 AM 39.5264 -78.3306 43° Northeast 278 320 9,600 -1,140 Descending Washington Center
Mon 08:19:12 AM 39.5861 -78.2628 41° Northeast 283 326 9,000 -336 Descending Washington Center
Mon 08:19:58 AM 39.6289 -78.2128 42° Northeast 271 312 9,000  Level Cleveland Center
Mon 08:21:52 AM 39.7500 -78.1000 36° Northeast 255 293 9,000  Level Potomac TRACON
Mon 08:22:52 AM 39.8000 -78.0500 38° Northeast 252 290 9,000  Level Potomac TRACON
Mon 08:23:47 AM 39.8333 -78.0000 49° Northeast 251 289 9,000  Level Potomac TRACON
Mon 08:24:47 AM 39.8333 -77.9167 90° East 276 318 9,000  Level Potomac TRACON
Mon 08:25:41 AM 39.7833 -77.8833 153° Southeast 234 269 9,000  Level Potomac TRACON
Mon 08:26:41 AM 39.7333 -77.8333 142° Southeast 195 224 9,000 -300 Level Potomac TRACON
Mon 08:27:41 AM 39.6833 -77.8000 153° Southeast 196 226 8,400 -650 Descending Potomac TRACON
Mon 08:28:41 AM 39.6333 -77.7500 142° Southeast 212 244 7,700 -632 Descending Potomac TRACON
Mon 08:29:35 AM 39.6000 -77.7167 142° Southeast 217 250 7,200 -368 Descending Potomac TRACON
Mon 08:30:35 AM 39.5500 -77.6833 153° Southeast 219 252 7,000 -100 Descending Potomac TRACON
Mon 08:31:35 AM 39.4833 -77.6333 150° Southeast 221 254 7,000 -263 Level Potomac TRACON
Mon 08:32:29 AM 39.4333 -77.6000 153° Southeast 229 264 6,500 -850 Descending Potomac TRACON
Mon 08:33:35 AM 39.3667 -77.5667 159° South 228 262 5,300 -667 Descending Potomac TRACON
Mon 08:34:35 AM 39.3167 -77.5333 153° Southeast 209 241 5,100 -474 Descending Potomac TRACON
Mon 08:35:29 AM 39.2667 -77.5000 153° Southeast 192 221 4,400 -842 Descending Potomac TRACON
Mon 08:36:29 AM 39.2333 -77.4667 142° Southeast 179 206 3,500 -700 Descending Potomac TRACON
Mon 08:37:29 AM 39.1833 -77.4500 166° South 170 196 3,000 -250 Descending Potomac TRACON
Mon 08:38:29 AM 39.1333 -77.4500 180° South 157 181 3,000 -50 Level Potomac TRACON
Mon 08:39:29 AM 39.1000 -77.4500 180° South 120 138 2,900 -400 Descending Potomac TRACON
Mon 08:40:29 AM 39.0667 -77.4500 180° South 114 131 2,200 -626 Descending Potomac TRACON
Mon 08:41:24 AM 39.0333 -77.4500 180° South 118 136 1,700 -600 Descending Potomac TRACON
Mon 08:42:29 AM 39.0000 -77.4667 201° Southwest 128 147 1,000 -646 Descending Potomac TRACON

Login

Don't have an account? Register now (free) for customized features, flight alerts, and more!